createdAt,value
2017-12-04T00:01:18.190Z,11.68
2017-12-04T00:03:44.930Z,10.85
2017-12-04T00:06:11.679Z,11.40
2017-12-04T00:08:38.401Z,12.07
2017-12-04T00:11:05.129Z,11.95
2017-12-04T00:13:31.880Z,11.20
2017-12-04T00:15:58.626Z,11.75
2017-12-04T00:18:25.373Z,11.88
2017-12-04T00:20:52.093Z,11.77
2017-12-04T00:23:18.814Z,12.63
2017-12-04T00:25:45.531Z,11.70
2017-12-04T00:28:12.297Z,11.88
2017-12-04T00:30:39.011Z,11.57
2017-12-04T00:33:05.755Z,11.57
2017-12-04T00:35:32.483Z,11.63
2017-12-04T00:37:59.197Z,11.40
2017-12-04T00:40:25.936Z,13.10
2017-12-04T00:42:52.661Z,12.65
2017-12-04T00:45:19.373Z,12.00
2017-12-04T00:47:46.110Z,12.10
2017-12-04T00:50:12.822Z,11.15
2017-12-04T00:52:39.541Z,12.23
2017-12-04T00:55:06.321Z,12.50
2017-12-04T00:57:33.052Z,11.15
2017-12-04T00:59:59.772Z,11.48
2017-12-04T01:02:26.559Z,11.98
2017-12-04T01:04:53.281Z,11.55
2017-12-04T01:07:20.001Z,10.35
2017-12-04T01:09:46.741Z,11.52
2017-12-04T01:12:13.457Z,11.52
2017-12-04T01:14:40.174Z,9.98
2017-12-04T01:17:06.915Z,11.15
2017-12-04T01:19:33.632Z,11.95
2017-12-04T01:22:00.400Z,11.15
2017-12-04T01:24:27.132Z,11.85
2017-12-04T01:26:53.851Z,11.57
2017-12-04T01:29:20.598Z,12.60
2017-12-04T01:31:47.327Z,12.02
2017-12-04T01:34:14.065Z,11.02
2017-12-04T01:36:40.798Z,11.68
2017-12-04T01:39:07.553Z,10.90
2017-12-04T01:41:34.318Z,12.80
2017-12-04T01:44:01.039Z,11.77
2017-12-04T01:46:27.776Z,9.75
2017-12-04T01:48:54.501Z,12.27
2017-12-04T01:51:21.237Z,10.95
2017-12-04T01:53:48.017Z,11.93
2017-12-04T01:56:14.730Z,11.40
2017-12-04T01:58:41.447Z,11.05
2017-12-04T02:01:08.187Z,11.20
2017-12-04T02:03:34.899Z,9.48
2017-12-04T02:06:01.635Z,12.00
2017-12-04T02:08:28.382Z,11.02
2017-12-04T02:10:55.110Z,11.57
2017-12-04T02:13:21.841Z,11.55
2017-12-04T02:15:48.594Z,11.00
2017-12-04T02:18:15.318Z,10.93
2017-12-04T02:20:42.066Z,12.32
2017-12-04T02:23:08.811Z,11.18
2017-12-04T02:25:35.552Z,12.88
2017-12-04T02:28:02.304Z,10.32
2017-12-04T02:30:29.080Z,12.90
2017-12-04T02:32:55.809Z,12.85
2017-12-04T02:35:22.563Z,12.80
2017-12-04T02:37:49.300Z,12.20
2017-12-04T02:40:16.067Z,12.40
2017-12-04T02:42:42.829Z,10.93
2017-12-04T02:45:09.582Z,12.75
2017-12-04T02:47:36.362Z,11.48
2017-12-04T02:50:03.141Z,10.45
2017-12-04T02:52:29.974Z,11.98
2017-12-04T02:54:56.715Z,10.15
2017-12-04T02:57:23.454Z,11.18
2017-12-04T02:59:50.271Z,11.63
2017-12-04T03:02:16.998Z,11.48
2017-12-04T03:04:43.709Z,11.80
2017-12-04T03:07:10.447Z,10.60
2017-12-04T03:09:37.171Z,10.18
2017-12-04T03:12:03.889Z,10.85
2017-12-04T03:14:30.603Z,12.00
2017-12-04T03:16:57.347Z,10.70
2017-12-04T03:19:24.109Z,12.05
2017-12-04T03:21:50.878Z,12.30
2017-12-04T03:24:17.622Z,11.52
2017-12-04T03:26:44.361Z,12.52
2017-12-04T03:29:11.097Z,10.85
2017-12-04T03:31:37.843Z,11.57
2017-12-04T03:34:04.592Z,11.80
2017-12-04T03:36:31.349Z,11.57
2017-12-04T03:38:58.099Z,11.40
2017-12-04T03:41:24.835Z,11.25
2017-12-04T03:43:51.565Z,11.70
2017-12-04T03:46:18.348Z,11.18
2017-12-04T03:48:45.071Z,10.68
2017-12-04T03:51:11.824Z,11.73
2017-12-04T03:53:38.535Z,11.70
2017-12-04T03:56:05.248Z,9.77
2017-12-04T03:58:32.001Z,10.68
2017-12-04T04:00:58.718Z,12.15
2017-12-04T04:03:25.428Z,13.40
2017-12-04T04:05:52.150Z,10.98
2017-12-04T04:08:18.879Z,9.40
2017-12-04T04:10:45.633Z,12.55
2017-12-04T04:13:12.378Z,10.88
2017-12-04T04:15:39.095Z,9.63
2017-12-04T04:18:05.809Z,10.75
2017-12-04T04:20:32.555Z,10.10
2017-12-04T04:22:59.261Z,11.60
2017-12-04T04:25:25.977Z,10.70
2017-12-04T04:27:52.735Z,10.32
2017-12-04T04:30:19.445Z,10.70
2017-12-04T04:32:46.186Z,10.18
2017-12-04T04:35:12.912Z,10.45
2017-12-04T04:37:39.629Z,11.95
2017-12-04T04:40:06.342Z,11.45
2017-12-04T04:42:33.091Z,11.25
2017-12-04T04:44:59.818Z,11.85
2017-12-04T04:47:26.571Z,10.95
2017-12-04T04:49:53.362Z,9.68
2017-12-04T04:52:20.139Z,9.73
2017-12-04T04:54:46.914Z,10.20
2017-12-04T04:57:13.634Z,10.85
2017-12-04T04:59:40.392Z,10.32
2017-12-04T05:02:07.126Z,11.25
2017-12-04T05:04:33.878Z,11.38
2017-12-04T05:07:00.610Z,10.93
2017-12-04T05:09:27.320Z,11.07
2017-12-04T05:11:54.065Z,9.93
2017-12-04T05:14:20.802Z,10.55
2017-12-04T05:16:47.570Z,10.75
2017-12-04T05:19:14.362Z,11.05
2017-12-04T05:21:41.088Z,11.45
2017-12-04T05:24:28.501Z,10.80
2017-12-04T05:26:55.253Z,10.13
2017-12-04T05:29:22.000Z,10.38
2017-12-04T05:31:48.737Z,10.85
2017-12-04T05:34:15.487Z,10.65
2017-12-04T05:36:42.251Z,11.05
2017-12-04T05:39:09.007Z,11.20
2017-12-04T05:41:35.752Z,10.90
2017-12-04T05:44:02.543Z,10.20
2017-12-04T05:46:29.306Z,11.63
2017-12-04T05:48:56.038Z,10.10
2017-12-04T05:51:22.790Z,11.07
2017-12-04T05:53:49.522Z,11.90
2017-12-04T05:56:16.273Z,10.80
2017-12-04T05:58:43.022Z,10.40
2017-12-04T06:01:09.755Z,11.90
2017-12-04T06:03:36.481Z,11.00
2017-12-04T06:06:03.241Z,11.10
2017-12-04T06:08:29.963Z,10.52
2017-12-04T06:10:56.684Z,11.40
2017-12-04T06:13:23.424Z,11.32
2017-12-04T06:15:50.135Z,10.63
2017-12-04T06:18:16.853Z,11.30
2017-12-04T06:20:43.595Z,9.90
2017-12-04T06:23:10.332Z,9.93
2017-12-04T06:25:37.042Z,10.00
2017-12-04T06:28:03.767Z,9.90
2017-12-04T06:30:30.496Z,10.15
2017-12-04T06:32:57.248Z,10.52
2017-12-04T06:35:23.997Z,11.10
2017-12-04T06:37:50.767Z,10.90
2017-12-04T06:40:17.489Z,10.95
2017-12-04T06:42:44.217Z,11.00
2017-12-04T06:45:10.932Z,10.35
2017-12-04T06:47:37.686Z,10.60
2017-12-04T06:50:04.420Z,11.27
2017-12-04T06:52:31.146Z,11.18
2017-12-04T06:54:57.898Z,11.95
2017-12-04T06:57:24.634Z,11.15
2017-12-04T06:59:51.352Z,11.65
2017-12-04T07:02:18.111Z,11.65
2017-12-04T07:04:44.829Z,11.20
2017-12-04T07:07:11.554Z,11.75
2017-12-04T07:09:38.285Z,11.68
2017-12-04T07:12:05.010Z,12.27
2017-12-04T07:14:31.727Z,11.05
2017-12-04T07:16:58.457Z,11.90
2017-12-04T07:19:25.186Z,11.02
2017-12-04T07:21:51.904Z,10.65
2017-12-04T07:24:18.674Z,11.02
2017-12-04T07:26:45.425Z,10.57
2017-12-04T07:29:12.146Z,11.82
2017-12-04T07:31:38.864Z,10.27
2017-12-04T07:34:05.611Z,11.20
2017-12-04T07:36:32.339Z,11.43
2017-12-04T07:38:59.089Z,10.48
2017-12-04T07:41:25.826Z,11.43
2017-12-04T07:43:52.542Z,10.43
2017-12-04T07:46:19.265Z,11.65
2017-12-04T07:48:46.003Z,11.73
2017-12-04T07:51:12.721Z,12.35
2017-12-04T07:53:39.449Z,10.40
2017-12-04T07:56:06.179Z,12.70
2017-12-04T07:58:32.912Z,11.68
2017-12-04T08:00:59.635Z,11.27
2017-12-04T08:03:26.368Z,10.30
2017-12-04T08:05:53.083Z,11.65
2017-12-04T08:08:19.822Z,10.77
2017-12-04T08:10:46.550Z,10.93
2017-12-04T08:13:13.271Z,10.55
2017-12-04T08:15:39.997Z,10.30
2017-12-04T08:18:06.724Z,11.70
2017-12-04T08:20:33.482Z,12.10
2017-12-04T08:23:00.235Z,11.90
2017-12-04T08:25:27.047Z,12.73
2017-12-04T08:27:53.802Z,11.68
2017-12-04T08:30:20.531Z,12.52
2017-12-04T08:32:47.277Z,14.48
2017-12-04T08:35:14.024Z,12.90
2017-12-04T08:37:40.750Z,13.40
2017-12-04T08:40:07.485Z,12.77
2017-12-04T08:42:34.196Z,13.20
2017-12-04T08:45:00.935Z,14.52
2017-12-04T08:47:27.669Z,14.87
2017-12-04T08:49:54.525Z,15.95
2017-12-04T08:52:21.235Z,15.85
2017-12-04T08:54:47.979Z,15.93
2017-12-04T08:57:14.697Z,16.05
2017-12-04T08:59:41.416Z,17.12
2017-12-04T09:02:08.170Z,15.02
2017-12-04T09:04:39.684Z,13.75
2017-12-04T09:07:01.659Z,15.73
2017-12-04T09:09:28.390Z,14.77
2017-12-04T09:11:55.103Z,15.90
2017-12-04T09:14:21.814Z,15.98
2017-12-04T09:16:48.554Z,16.80
2017-12-04T09:19:15.323Z,15.48
2017-12-04T09:21:42.100Z,14.63
2017-12-04T09:24:08.859Z,15.05
2017-12-04T09:26:35.607Z,16.70
2017-12-04T09:29:02.361Z,17.58
2017-12-04T09:31:29.131Z,17.20
2017-12-04T09:33:55.898Z,18.08
2017-12-04T09:36:22.615Z,17.40
2017-12-04T09:38:49.368Z,18.30
2017-12-04T09:41:16.100Z,16.17
2017-12-04T09:43:42.814Z,17.25
2017-12-04T09:46:09.563Z,18.12
2017-12-04T09:48:36.294Z,20.08
2017-12-04T09:51:03.030Z,18.35
2017-12-04T09:53:29.753Z,18.85
2017-12-04T09:55:56.476Z,19.25
2017-12-04T09:58:23.204Z,20.30
2017-12-04T10:00:50.004Z,19.50
2017-12-04T10:03:16.730Z,18.92
2017-12-04T10:05:43.478Z,17.17
2017-12-04T10:08:10.212Z,18.55
2017-12-04T10:10:36.938Z,18.60
2017-12-04T10:13:03.682Z,20.67
2017-12-04T10:15:30.454Z,19.95
2017-12-04T10:17:57.179Z,22.15
2017-12-04T10:20:24.135Z,20.98
2017-12-04T10:22:50.870Z,19.37
2017-12-04T10:25:17.592Z,19.12
2017-12-04T10:27:44.360Z,18.42
2017-12-04T10:30:11.100Z,18.33
2017-12-04T10:32:37.811Z,20.02
2017-12-04T10:35:04.545Z,20.17
2017-12-04T10:37:31.326Z,18.83
2017-12-04T10:39:58.097Z,18.98
2017-12-04T10:42:24.818Z,19.60
2017-12-04T10:44:51.549Z,17.30
2017-12-04T10:47:18.335Z,17.27
2017-12-04T10:49:45.097Z,17.52
2017-12-04T10:52:11.868Z,19.17
2017-12-04T10:54:38.609Z,18.02
2017-12-04T10:57:05.423Z,16.45
2017-12-04T10:59:32.203Z,19.25
2017-12-04T11:01:58.974Z,18.83
2017-12-04T11:04:25.729Z,17.65
2017-12-04T11:06:52.498Z,18.52
2017-12-04T11:09:19.251Z,19.25
2017-12-04T11:11:45.983Z,18.12
2017-12-04T11:14:12.710Z,18.42
2017-12-04T11:16:39.443Z,17.40
2017-12-04T11:19:06.188Z,16.45
2017-12-04T11:21:32.942Z,30.88
2017-12-04T11:23:59.675Z,16.80
2017-12-04T11:26:26.397Z,19.25
2017-12-04T11:28:53.130Z,15.27
2017-12-04T11:31:19.858Z,17.42
2017-12-04T11:33:46.585Z,16.95
2017-12-04T11:36:13.330Z,16.87
2017-12-04T11:38:40.050Z,17.23
2017-12-04T11:41:06.904Z,17.00
2017-12-04T11:43:33.654Z,17.12
2017-12-04T11:46:00.406Z,17.20
2017-12-04T11:48:27.166Z,17.23
2017-12-04T11:50:53.905Z,50.70
2017-12-04T11:53:20.634Z,22.48
2017-12-04T11:55:47.370Z,18.98
2017-12-04T11:58:14.110Z,18.70
2017-12-04T12:00:40.854Z,17.35
2017-12-04T12:03:07.630Z,18.35
2017-12-04T12:05:34.395Z,18.55
2017-12-04T12:08:01.145Z,18.27
2017-12-04T12:10:27.874Z,17.12
2017-12-04T12:12:54.623Z,17.08
2017-12-04T12:15:21.339Z,18.58
2017-12-04T12:17:48.067Z,18.67
2017-12-04T12:20:14.807Z,18.77
2017-12-04T12:22:41.516Z,19.10
2017-12-04T12:25:08.228Z,20.83
2017-12-04T12:27:34.976Z,20.40
2017-12-04T12:30:01.706Z,21.85
2017-12-04T12:32:28.450Z,22.40
2017-12-04T12:34:55.179Z,22.70
2017-12-04T12:37:21.952Z,23.45
2017-12-04T12:39:49.692Z,21.83
2017-12-04T12:42:16.487Z,24.80
2017-12-04T12:44:43.215Z,21.90
2017-12-04T12:47:09.935Z,23.70
2017-12-04T12:49:36.689Z,20.77
2017-12-04T12:52:03.416Z,21.98
2017-12-04T12:54:30.160Z,22.55
2017-12-04T12:56:56.979Z,21.05
2017-12-04T12:59:25.145Z,21.33
2017-12-04T13:01:51.882Z,21.60
2017-12-04T13:04:18.621Z,21.52
2017-12-04T13:06:45.358Z,21.02
2017-12-04T13:09:12.089Z,21.17
2017-12-04T13:11:38.883Z,21.73
2017-12-04T13:14:05.611Z,20.12
2017-12-04T13:16:32.361Z,21.12
2017-12-04T13:18:59.108Z,19.58
2017-12-04T13:21:25.842Z,20.77
2017-12-04T13:23:52.564Z,20.37
2017-12-04T13:26:19.370Z,19.20
2017-12-04T13:28:46.083Z,21.23
2017-12-04T13:31:12.844Z,22.27
2017-12-04T13:33:59.231Z,22.27
2017-12-04T13:36:31.791Z,20.73
2017-12-04T13:38:58.563Z,19.50
2017-12-04T13:41:25.307Z,20.67
2017-12-04T13:43:52.055Z,20.42
2017-12-04T13:46:18.811Z,22.42
2017-12-04T13:48:45.619Z,18.67
2017-12-04T13:51:12.378Z,22.25
2017-12-04T13:53:39.094Z,20.70
2017-12-04T13:56:05.844Z,21.30
2017-12-04T13:58:32.571Z,24.70
2017-12-04T14:00:59.338Z,22.25
2017-12-04T14:03:26.080Z,21.70
2017-12-04T14:05:52.844Z,20.20
2017-12-04T14:08:19.597Z,20.52
2017-12-04T14:10:46.345Z,20.40
2017-12-04T14:13:13.074Z,21.65
2017-12-04T14:15:39.802Z,22.48
2017-12-04T14:18:06.568Z,20.42
2017-12-04T14:20:33.312Z,20.85
2017-12-04T14:23:00.047Z,20.62
2017-12-04T14:25:26.773Z,22.20
2017-12-04T14:27:53.537Z,20.20
2017-12-04T14:30:20.263Z,21.73
2017-12-04T14:32:47.057Z,20.75
2017-12-04T14:35:13.795Z,21.02
2017-12-04T14:37:40.525Z,24.00
2017-12-04T14:40:07.281Z,22.15
2017-12-04T14:42:34.024Z,23.00
2017-12-04T14:45:00.812Z,24.15
2017-12-04T14:47:27.601Z,24.02
2017-12-04T14:49:54.389Z,25.20
2017-12-04T14:52:21.148Z,21.67
2017-12-04T14:54:47.891Z,18.75
2017-12-04T14:57:14.646Z,19.35
2017-12-04T14:59:41.417Z,16.40
2017-12-04T15:02:08.194Z,15.57
2017-12-04T15:04:34.965Z,15.85
2017-12-04T15:07:01.744Z,16.73
2017-12-04T15:09:28.545Z,16.80
2017-12-04T15:11:55.291Z,19.52
2017-12-04T15:14:22.072Z,20.10
2017-12-04T15:16:48.842Z,20.77
2017-12-04T15:19:15.612Z,16.80
2017-12-04T15:21:42.367Z,18.62
2017-12-04T15:24:09.119Z,22.50
2017-12-04T15:26:35.896Z,21.87
2017-12-04T15:29:02.649Z,23.45
2017-12-04T15:31:29.392Z,23.30
2017-12-04T15:33:56.172Z,23.52
2017-12-04T15:36:22.927Z,21.85
2017-12-04T15:38:49.706Z,19.87
2017-12-04T15:41:16.462Z,18.02
2017-12-04T15:43:43.212Z,18.33
2017-12-04T15:46:10.017Z,19.08
2017-12-04T15:48:36.780Z,19.85
2017-12-04T15:51:03.516Z,19.87
2017-12-04T15:53:30.260Z,20.35
2017-12-04T15:56:14.335Z,20.40
2017-12-04T15:58:52.222Z,20.00
2017-12-04T16:01:33.999Z,20.83
2017-12-04T16:04:00.838Z,20.30
2017-12-04T16:06:27.628Z,19.52
2017-12-04T16:08:54.395Z,22.30
2017-12-04T16:11:21.158Z,21.27
2017-12-04T16:13:47.914Z,23.20
2017-12-04T16:16:14.672Z,20.62
2017-12-04T16:18:41.412Z,24.25
2017-12-04T16:21:08.164Z,24.63
2017-12-04T16:23:34.901Z,23.85
2017-12-04T16:26:01.649Z,25.23
2017-12-04T16:28:28.389Z,22.70
2017-12-04T16:30:55.170Z,22.15
2017-12-04T16:33:21.930Z,22.65
2017-12-04T16:35:48.698Z,22.92
2017-12-04T16:38:15.468Z,23.65
2017-12-04T16:40:42.201Z,21.25
2017-12-04T16:43:08.936Z,23.87
2017-12-04T16:45:35.694Z,24.15
2017-12-04T16:48:02.590Z,25.83
2017-12-04T16:50:29.347Z,24.37
2017-12-04T16:52:56.070Z,23.23
2017-12-04T16:55:22.864Z,24.50
2017-12-04T16:57:49.617Z,22.83
2017-12-04T17:00:16.373Z,25.12
2017-12-04T17:02:43.145Z,23.00
2017-12-04T17:05:13.852Z,22.45
2017-12-04T17:07:46.180Z,18.23
2017-12-04T17:10:12.950Z,18.25
2017-12-04T17:12:39.725Z,19.50
2017-12-04T17:15:06.473Z,19.42
2017-12-04T17:17:33.213Z,19.80
2017-12-04T17:19:59.954Z,19.33
2017-12-04T17:22:26.702Z,18.67
2017-12-04T17:24:53.459Z,21.12
2017-12-04T17:27:20.200Z,22.58
2017-12-04T17:29:46.945Z,22.20
2017-12-04T17:32:13.697Z,21.90
2017-12-04T17:34:40.423Z,23.83
2017-12-04T17:37:07.158Z,24.67
2017-12-04T17:39:33.905Z,23.40
2017-12-04T17:42:00.662Z,21.75
2017-12-04T17:44:27.418Z,21.87
2017-12-04T17:46:54.156Z,22.27
2017-12-04T17:49:20.899Z,22.55
2017-12-04T17:51:47.657Z,19.98
2017-12-04T17:54:14.413Z,16.48
2017-12-04T17:56:41.145Z,17.48
2017-12-04T17:59:07.943Z,16.00
2017-12-04T18:01:34.672Z,16.27
2017-12-04T18:04:01.417Z,18.83
2017-12-04T18:06:29.650Z,18.77
2017-12-04T18:08:56.480Z,18.20
2017-12-04T18:11:23.241Z,18.25
2017-12-04T18:13:50.008Z,18.98
2017-12-04T18:16:16.749Z,17.25
2017-12-04T18:18:43.483Z,18.55
2017-12-04T18:21:10.271Z,19.83
2017-12-04T18:23:37.041Z,18.48
2017-12-04T18:26:03.890Z,18.77
2017-12-04T18:28:30.660Z,20.02
2017-12-04T18:30:57.425Z,19.87
2017-12-04T18:33:24.210Z,19.48
2017-12-04T18:35:50.962Z,19.95
2017-12-04T18:38:17.792Z,20.17
2017-12-04T18:40:44.541Z,19.33
2017-12-04T18:43:11.318Z,20.45
2017-12-04T18:45:38.087Z,20.17
2017-12-04T18:48:04.859Z,20.70
2017-12-04T18:50:31.654Z,19.02
2017-12-04T18:52:58.474Z,19.92
2017-12-04T18:55:25.243Z,18.02
2017-12-04T18:57:52.032Z,18.70
2017-12-04T19:00:18.843Z,17.58
2017-12-04T19:02:45.591Z,17.25
2017-12-04T19:05:12.353Z,16.00
2017-12-04T19:07:39.123Z,18.10
2017-12-04T19:10:05.910Z,19.40
2017-12-04T19:12:32.713Z,19.20
2017-12-04T19:14:59.455Z,18.62
2017-12-04T19:17:26.219Z,18.58
2017-12-04T19:19:52.987Z,19.08
2017-12-04T19:22:19.752Z,17.98
2017-12-04T19:24:46.516Z,19.92
2017-12-04T19:27:13.302Z,20.30
2017-12-04T19:29:40.040Z,20.83
2017-12-04T19:32:06.787Z,20.88
2017-12-04T19:34:33.605Z,21.70
2017-12-04T19:37:00.386Z,20.98
2017-12-04T19:39:27.134Z,22.62
2017-12-04T19:41:53.923Z,22.62
2017-12-04T19:44:20.678Z,21.33
2017-12-04T19:46:47.443Z,21.33
2017-12-04T19:49:14.258Z,22.15
2017-12-04T19:51:41.021Z,18.65
2017-12-04T19:54:07.754Z,19.90
2017-12-04T19:56:34.523Z,18.33
2017-12-04T19:59:01.300Z,18.52
2017-12-04T20:01:28.175Z,18.35
2017-12-04T20:03:55.153Z,19.10
2017-12-04T20:06:21.910Z,18.60
2017-12-04T20:08:48.732Z,16.48
2017-12-04T20:11:15.818Z,16.95
2017-12-04T20:13:42.576Z,16.77
2017-12-04T20:16:09.347Z,17.73
2017-12-04T20:18:36.097Z,20.08
2017-12-04T20:21:02.882Z,18.83
2017-12-04T20:23:29.635Z,20.67
2017-12-04T20:25:56.405Z,21.02
2017-12-04T20:28:23.179Z,20.75
2017-12-04T20:30:49.979Z,23.60
2017-12-04T20:33:16.759Z,21.80
2017-12-04T20:35:43.537Z,19.83
2017-12-04T20:38:10.330Z,20.08
2017-12-04T20:40:37.089Z,19.17
2017-12-04T20:43:03.856Z,21.55
2017-12-04T20:45:30.653Z,19.65
2017-12-04T20:47:57.436Z,19.85
2017-12-04T20:50:24.226Z,18.60
2017-12-04T20:52:50.991Z,18.70
2017-12-04T20:55:17.767Z,20.25
2017-12-04T20:57:44.517Z,20.80
2017-12-04T21:00:11.288Z,24.58
2017-12-04T21:02:38.092Z,21.75
2017-12-04T21:05:04.846Z,21.25
2017-12-04T21:07:31.611Z,18.77
2017-12-04T21:10:04.305Z,20.48
2017-12-04T21:12:31.216Z,20.08
2017-12-04T21:15:04.002Z,23.35
2017-12-04T21:17:33.604Z,24.27
2017-12-04T21:20:00.493Z,23.12
2017-12-04T21:22:27.254Z,24.00
2017-12-04T21:24:54.111Z,22.83
2017-12-04T21:27:20.882Z,22.60
2017-12-04T21:29:47.656Z,22.37
2017-12-04T21:32:14.441Z,21.83
2017-12-04T21:34:42.104Z,22.50
2017-12-04T21:37:08.864Z,23.83
2017-12-04T21:39:35.645Z,22.70
2017-12-04T21:42:02.426Z,23.25
2017-12-04T21:44:29.212Z,23.60
2017-12-04T21:46:55.968Z,24.83
2017-12-04T21:49:22.763Z,23.83
2017-12-04T21:51:49.548Z,24.37
2017-12-04T21:54:16.308Z,25.77
2017-12-04T21:56:50.948Z,27.33
2017-12-04T21:59:17.727Z,26.42
2017-12-04T22:01:44.680Z,28.00
2017-12-04T22:04:11.470Z,28.20
2017-12-04T22:06:38.217Z,24.85
2017-12-04T22:09:04.933Z,27.00
2017-12-04T22:11:31.685Z,25.10
2017-12-04T22:13:58.456Z,26.65
2017-12-04T22:16:25.249Z,28.90
2017-12-04T22:18:52.018Z,26.67
2017-12-04T22:21:18.776Z,24.02
2017-12-04T22:23:45.524Z,27.42
2017-12-04T22:26:12.293Z,33.03
2017-12-04T22:28:39.039Z,31.55
2017-12-04T22:31:05.781Z,33.75
2017-12-04T22:33:32.533Z,30.37
2017-12-04T22:35:59.296Z,32.78
2017-12-04T22:38:26.049Z,32.03
2017-12-04T22:40:52.804Z,31.17
2017-12-04T22:43:19.581Z,33.72
2017-12-04T22:45:46.359Z,34.13
2017-12-04T22:48:13.106Z,32.72
2017-12-04T22:50:39.870Z,32.10
2017-12-04T22:53:06.630Z,36.47
2017-12-04T22:55:33.395Z,32.67
2017-12-04T22:58:00.214Z,32.83
2017-12-04T23:00:29.804Z,33.30
2017-12-04T23:02:56.564Z,33.97
2017-12-04T23:05:23.348Z,34.05
2017-12-04T23:07:50.142Z,33.03
2017-12-04T23:10:16.933Z,34.58
2017-12-04T23:12:43.699Z,35.40
2017-12-04T23:15:10.438Z,34.45
2017-12-04T23:17:37.228Z,34.60
2017-12-04T23:20:04.003Z,33.08
2017-12-04T23:22:30.796Z,34.17
2017-12-04T23:24:57.588Z,35.30
2017-12-04T23:27:24.360Z,36.58
2017-12-04T23:29:51.159Z,36.88
2017-12-04T23:32:17.909Z,36.33
2017-12-04T23:34:44.663Z,36.58
2017-12-04T23:37:11.407Z,36.15
2017-12-04T23:39:38.172Z,35.13
2017-12-04T23:42:04.934Z,36.70
2017-12-04T23:44:31.713Z,33.42
2017-12-04T23:46:58.448Z,33.35
2017-12-04T23:49:25.202Z,35.03
2017-12-04T23:51:51.932Z,37.05
2017-12-04T23:54:20.487Z,31.42
2017-12-04T23:56:47.264Z,33.72
2017-12-04T23:59:13.999Z,32.47
